createdAt,value
2018-12-30T00:01:32.659Z,13.08
2018-12-30T00:04:05.034Z,12.23
2018-12-30T00:06:36.198Z,14.87
2018-12-30T00:09:08.515Z,14.00
2018-12-30T00:11:39.569Z,12.73
2018-12-30T00:14:10.315Z,15.15
2018-12-30T00:16:40.034Z,12.43
2018-12-30T00:19:11.396Z,14.40
2018-12-30T00:21:43.378Z,16.35
2018-12-30T00:24:14.234Z,12.85
2018-12-30T00:26:56.060Z,14.18
2018-12-30T00:29:19.079Z,11.33
2018-12-30T00:31:49.956Z,12.33
2018-12-30T00:34:23.485Z,10.35
2018-12-30T00:36:55.836Z,14.58
2018-12-30T00:39:28.275Z,12.05
2018-12-30T00:41:58.034Z,15.08
2018-12-30T00:44:28.842Z,13.80
2018-12-30T00:46:59.714Z,15.83
2018-12-30T00:49:30.714Z,12.25
2018-12-30T00:52:01.475Z,16.32
2018-12-30T00:54:32.313Z,14.53
2018-12-30T00:57:02.994Z,15.78
2018-12-30T00:59:35.355Z,17.50
2018-12-30T01:02:06.157Z,14.47
2018-12-30T01:04:37.075Z,15.35
2018-12-30T01:07:09.076Z,14.00
2018-12-30T01:09:40.362Z,14.30
2018-12-30T01:12:11.243Z,12.47
2018-12-30T01:14:41.239Z,15.10
2018-12-30T01:17:12.074Z,13.18
2018-12-30T01:19:42.968Z,11.80
2018-12-30T01:22:13.802Z,13.83
2018-12-30T01:24:44.755Z,13.72
2018-12-30T01:27:15.514Z,13.22
2018-12-30T01:29:46.395Z,11.53
2018-12-30T01:32:19.034Z,10.63
2018-12-30T01:34:50.274Z,13.10
2018-12-30T01:37:21.120Z,12.63
2018-12-30T01:39:51.939Z,13.40
2018-12-30T01:42:23.625Z,10.80
2018-12-30T01:44:59.061Z,12.60
2018-12-30T01:47:29.194Z,11.75
2018-12-30T01:50:01.611Z,14.28
2018-12-30T01:52:33.994Z,11.45
2018-12-30T01:55:04.713Z,14.98
2018-12-30T01:57:37.915Z,14.45
2018-12-30T02:00:09.154Z,13.03
2018-12-30T02:02:39.994Z,12.53
2018-12-30T02:05:11.354Z,11.70
2018-12-30T02:07:41.073Z,12.95
2018-12-30T02:10:11.874Z,8.53
2018-12-30T02:12:44.930Z,11.60
2018-12-30T02:15:17.474Z,11.25
2018-12-30T02:17:50.325Z,10.65
2018-12-30T02:20:22.996Z,12.75
2018-12-30T02:22:52.719Z,11.35
2018-12-30T02:25:23.461Z,13.25
2018-12-30T02:27:54.245Z,10.45
2018-12-30T02:30:26.770Z,14.65
2018-12-30T02:32:57.181Z,15.88
2018-12-30T02:35:26.954Z,9.98
2018-12-30T02:37:59.256Z,15.83
2018-12-30T02:40:29.988Z,15.05
2018-12-30T02:43:03.154Z,16.20
2018-12-30T02:45:33.971Z,16.80
2018-12-30T02:48:07.914Z,18.55
2018-12-30T02:50:37.601Z,15.15
2018-12-30T02:53:07.330Z,17.80
2018-12-30T02:55:40.195Z,13.95
2018-12-30T02:58:11.595Z,16.70
2018-12-30T03:00:44.553Z,16.90
2018-12-30T03:03:16.473Z,15.00
2018-12-30T03:05:48.238Z,15.72
2018-12-30T03:08:19.719Z,18.17
2018-12-30T03:10:50.554Z,14.68
2018-12-30T03:13:21.314Z,16.77
2018-12-30T03:15:50.437Z,7.15
2018-12-30T03:18:22.793Z,10.50
2018-12-30T03:20:53.554Z,15.53
2018-12-30T03:23:24.353Z,14.85
2018-12-30T03:25:54.001Z,11.43
2018-12-30T03:28:24.876Z,13.95
2018-12-30T03:30:55.757Z,15.15
2018-12-30T03:33:28.142Z,11.85
2018-12-30T03:36:00.970Z,17.20
2018-12-30T03:38:34.034Z,12.50
2018-12-30T03:41:04.917Z,16.12
2018-12-30T03:43:38.453Z,15.03
2018-12-30T03:46:09.274Z,16.57
2018-12-30T03:48:40.003Z,15.78
2018-12-30T03:51:10.765Z,17.10
2018-12-30T03:53:41.594Z,17.52
2018-12-30T03:56:13.803Z,17.75
2018-12-30T03:58:43.568Z,16.85
2018-12-30T04:01:14.317Z,19.40
2018-12-30T04:03:45.074Z,17.42
2018-12-30T04:06:15.925Z,17.52
2018-12-30T04:08:48.768Z,19.73
2018-12-30T04:11:19.514Z,16.35
2018-12-30T04:13:50.284Z,21.23
2018-12-30T04:16:22.578Z,17.92
2018-12-30T04:18:54.358Z,16.80
2018-12-30T04:21:30.651Z,18.10
2018-12-30T04:24:01.135Z,14.63
2018-12-30T04:26:33.446Z,14.70
2018-12-30T04:29:04.195Z,17.70
2018-12-30T04:31:33.876Z,16.57
2018-12-30T04:34:05.379Z,19.70
2018-12-30T04:36:36.114Z,12.85
2018-12-30T04:39:08.266Z,17.27
2018-12-30T04:41:39.036Z,15.48
2018-12-30T04:44:12.635Z,18.92
2018-12-30T04:46:43.394Z,18.02
2018-12-30T04:49:16.274Z,17.87
2018-12-30T04:51:45.954Z,12.45
2018-12-30T04:54:16.766Z,16.32
2018-12-30T04:56:47.779Z,18.73
2018-12-30T04:59:18.554Z,15.43
2018-12-30T05:01:49.275Z,16.32
2018-12-30T05:04:21.978Z,15.63
2018-12-30T05:06:53.978Z,15.08
2018-12-30T05:09:26.358Z,14.30
2018-12-30T05:11:56.834Z,15.10
2018-12-30T05:14:27.554Z,18.30
2018-12-30T05:16:59.915Z,15.03
2018-12-30T05:19:29.676Z,9.60
2018-12-30T05:22:00.482Z,15.15
2018-12-30T05:24:31.235Z,14.20
2018-12-30T05:27:02.034Z,12.05
2018-12-30T05:29:34.955Z,15.88
2018-12-30T05:32:06.237Z,16.27
2018-12-30T05:34:41.198Z,15.93
2018-12-30T05:37:08.484Z,15.75
2018-12-30T05:39:40.354Z,16.93
2018-12-30T05:42:11.162Z,13.03
2018-12-30T05:44:41.881Z,12.85
2018-12-30T05:47:11.922Z,11.45
2018-12-30T05:49:42.286Z,11.90
2018-12-30T05:52:12.079Z,10.95
2018-12-30T05:54:42.923Z,13.98
2018-12-30T05:57:13.713Z,14.80
2018-12-30T05:59:44.520Z,16.05
2018-12-30T06:02:15.283Z,12.53
2018-12-30T06:04:46.034Z,10.82
2018-12-30T06:07:16.762Z,17.52
2018-12-30T06:09:45.914Z,12.07
2018-12-30T06:12:16.764Z,9.35
2018-12-30T06:14:47.634Z,11.85
2018-12-30T06:17:17.322Z,15.20
2018-12-30T06:19:46.963Z,16.57
2018-12-30T06:22:16.763Z,9.05
2018-12-30T06:24:46.522Z,18.32
2018-12-30T06:27:17.355Z,13.38
2018-12-30T06:29:48.235Z,11.80
2018-12-30T06:32:19.715Z,13.90
2018-12-30T06:34:50.482Z,17.27
2018-12-30T06:37:22.118Z,11.95
2018-12-30T06:39:51.882Z,17.42
2018-12-30T06:42:22.693Z,22.67
2018-12-30T06:44:55.126Z,24.18
2018-12-30T06:47:27.316Z,24.10
2018-12-30T06:49:58.162Z,23.30
2018-12-30T06:52:28.915Z,25.70
2018-12-30T06:54:59.722Z,24.07
2018-12-30T06:57:32.555Z,26.07
2018-12-30T07:00:03.327Z,22.77
2018-12-30T07:02:34.834Z,22.87
2018-12-30T07:05:05.646Z,15.13
2018-12-30T07:07:36.363Z,12.07
2018-12-30T07:10:07.074Z,16.05
2018-12-30T07:12:37.845Z,23.10
2018-12-30T07:15:11.765Z,20.75
2018-12-30T07:17:42.642Z,22.98
2018-12-30T07:20:13.375Z,18.07
2018-12-30T07:22:44.675Z,22.58
2018-12-30T07:25:16.075Z,18.25
2018-12-30T07:27:48.995Z,23.20
2018-12-30T07:30:19.762Z,18.65
2018-12-30T07:32:50.563Z,22.00
2018-12-30T07:35:20.283Z,22.58
2018-12-30T07:37:51.047Z,23.80
2018-12-30T07:40:23.137Z,21.75
2018-12-30T07:42:53.996Z,20.35
2018-12-30T07:45:24.794Z,17.50
2018-12-30T07:47:55.563Z,17.82
2018-12-30T07:50:24.874Z,20.20
2018-12-30T07:52:54.633Z,24.25
2018-12-30T07:55:25.434Z,23.75
2018-12-30T07:57:56.241Z,21.82
2018-12-30T08:00:27.042Z,18.52
2018-12-30T08:02:57.801Z,22.17
2018-12-30T08:05:28.563Z,24.63
2018-12-30T08:08:00.010Z,25.37
2018-12-30T08:10:30.844Z,23.73
2018-12-30T08:13:04.168Z,19.75
2018-12-30T08:15:34.988Z,15.40
2018-12-30T08:18:05.802Z,15.48
2018-12-30T08:20:36.531Z,19.67
2018-12-30T08:23:13.499Z,15.00
2018-12-30T08:25:39.675Z,9.75
2018-12-30T08:28:10.445Z,14.50
2018-12-30T08:30:41.324Z,27.37
2018-12-30T08:33:12.114Z,9.40
2018-12-30T08:35:42.836Z,15.83
2018-12-30T08:38:11.994Z,18.15
2018-12-30T08:40:42.847Z,16.50
2018-12-30T08:43:17.286Z,24.02
2018-12-30T08:45:48.099Z,31.37
2018-12-30T08:48:18.922Z,45.80
2018-12-30T08:50:49.635Z,47.08
2018-12-30T08:53:20.448Z,25.35
2018-12-30T08:55:51.275Z,22.32
2018-12-30T08:58:22.153Z,25.88
2018-12-30T09:00:51.919Z,17.48
2018-12-30T09:03:22.696Z,28.60
2018-12-30T09:05:56.374Z,32.28
2018-12-30T09:08:26.683Z,27.22
2018-12-30T09:10:57.999Z,36.88
2018-12-30T09:13:29.398Z,22.17
2018-12-30T09:15:58.577Z,20.77
2018-12-30T09:18:29.390Z,27.27
2018-12-30T09:21:00.201Z,24.82
2018-12-30T09:23:37.355Z,11.28
2018-12-30T09:26:03.755Z,11.40
2018-12-30T09:28:34.598Z,19.92
2018-12-30T09:31:07.134Z,19.02
2018-12-30T09:33:37.956Z,31.85
2018-12-30T09:36:10.857Z,11.50
2018-12-30T09:38:41.634Z,16.20
2018-12-30T09:41:12.446Z,16.45
2018-12-30T09:43:44.143Z,15.90
2018-12-30T09:46:13.674Z,19.70
2018-12-30T09:48:45.997Z,15.30
2018-12-30T09:51:16.842Z,20.20
2018-12-30T09:53:47.554Z,7.25
2018-12-30T09:56:18.434Z,14.20
2018-12-30T09:58:49.201Z,13.03
2018-12-30T10:01:19.973Z,17.98
2018-12-30T10:03:50.879Z,11.22
2018-12-30T10:06:21.607Z,11.95
2018-12-30T10:08:52.366Z,8.35
2018-12-30T10:11:23.199Z,13.35
2018-12-30T10:13:54.003Z,14.65
2018-12-30T10:16:24.847Z,12.30
2018-12-30T10:18:55.621Z,12.10
2018-12-30T10:21:26.480Z,30.17
2018-12-30T10:23:57.326Z,13.25
2018-12-30T10:26:28.040Z,22.37
2018-12-30T10:28:58.786Z,18.52
2018-12-30T10:31:31.882Z,7.28
2018-12-30T10:34:04.500Z,13.58
2018-12-30T10:36:35.245Z,21.00
2018-12-30T10:39:06.559Z,14.15
2018-12-30T10:41:37.362Z,15.72
2018-12-30T10:44:09.673Z,11.97
2018-12-30T10:47:50.400Z,8.18
2018-12-30T10:50:21.878Z,15.58
2018-12-30T10:52:55.279Z,10.93
2018-12-30T10:55:27.646Z,15.05
2018-12-30T10:57:58.394Z,8.85
2018-12-30T11:00:31.525Z,14.13
2018-12-30T11:03:02.317Z,15.15
2018-12-30T11:05:34.686Z,10.78
2018-12-30T11:08:06.834Z,11.53
2018-12-30T11:10:37.650Z,12.10
2018-12-30T11:13:09.500Z,7.17
2018-12-30T11:15:39.927Z,14.25
2018-12-30T11:18:09.691Z,14.25
2018-12-30T11:20:44.599Z,17.25
2018-12-30T11:23:15.529Z,15.55
2018-12-30T11:25:47.883Z,14.90
2018-12-30T11:28:18.808Z,18.23
2018-12-30T11:30:51.499Z,9.45
2018-12-30T11:33:22.242Z,16.07
2018-12-30T11:35:53.118Z,13.08
2018-12-30T11:38:24.518Z,12.90
2018-12-30T11:40:55.322Z,12.98
2018-12-30T11:43:27.595Z,12.05
2018-12-30T11:45:58.402Z,11.38
2018-12-30T11:48:29.198Z,13.18
2018-12-30T11:50:59.915Z,13.20
2018-12-30T11:53:38.100Z,20.80
2018-12-30T11:56:08.403Z,21.40
2018-12-30T11:58:39.244Z,14.98
2018-12-30T12:01:09.992Z,12.25
2018-12-30T12:03:40.931Z,7.87
2018-12-30T12:06:11.717Z,13.50
2018-12-30T12:08:42.487Z,10.20
2018-12-30T12:11:13.198Z,17.10
2018-12-30T12:13:44.805Z,13.72
2018-12-30T12:16:14.525Z,14.70
2018-12-30T12:18:45.326Z,16.87
2018-12-30T12:21:18.715Z,17.42
2018-12-30T12:23:49.993Z,16.82
2018-12-30T12:26:20.842Z,14.45
2018-12-30T12:28:51.563Z,9.83
2018-12-30T12:31:22.434Z,14.10
2018-12-30T12:33:52.159Z,9.30
2018-12-30T12:36:22.978Z,16.23
2018-12-30T12:38:52.714Z,11.15
2018-12-30T12:41:22.573Z,11.97
2018-12-30T12:43:54.093Z,12.40
2018-12-30T12:46:25.776Z,13.68
2018-12-30T12:48:56.642Z,13.40
2018-12-30T12:51:28.074Z,25.68
2018-12-30T12:53:57.913Z,13.15
2018-12-30T12:56:28.766Z,10.68
2018-12-30T12:58:58.482Z,31.00
2018-12-30T13:01:29.282Z,30.20
2018-12-30T13:04:00.120Z,15.50
2018-12-30T13:06:30.922Z,22.35
2018-12-30T13:09:00.642Z,16.82
2018-12-30T13:11:31.399Z,13.55
2018-12-30T13:14:02.126Z,11.63
2018-12-30T13:16:31.810Z,16.35
2018-12-30T13:19:04.048Z,13.83
2018-12-30T13:21:34.953Z,9.15
2018-12-30T13:24:06.319Z,14.60
2018-12-30T13:26:40.194Z,15.95
2018-12-30T13:29:10.964Z,24.60
2018-12-30T13:31:41.693Z,23.02
2018-12-30T13:34:11.404Z,9.83
2018-12-30T13:36:44.361Z,10.80
2018-12-30T13:39:15.078Z,16.27
2018-12-30T13:41:44.801Z,14.80
2018-12-30T13:44:15.689Z,20.82
2018-12-30T13:46:46.211Z,34.23
2018-12-30T13:49:15.919Z,19.17
2018-12-30T13:51:46.925Z,21.12
2018-12-30T13:54:17.694Z,27.05
2018-12-30T13:56:50.698Z,27.10
2018-12-30T13:59:21.635Z,14.05
2018-12-30T14:01:53.039Z,21.07
2018-12-30T14:04:23.807Z,13.55
2018-12-30T14:06:53.558Z,22.85
2018-12-30T14:09:24.366Z,12.20
2018-12-30T14:11:54.126Z,18.82
2018-12-30T14:14:25.003Z,15.18
2018-12-30T14:16:55.879Z,16.20
2018-12-30T14:19:26.647Z,14.33
2018-12-30T14:21:57.565Z,16.25
2018-12-30T14:24:28.794Z,20.40
2018-12-30T14:27:00.054Z,14.83
2018-12-30T14:29:31.154Z,16.50
2018-12-30T14:32:01.923Z,19.90
2018-12-30T14:34:32.764Z,21.12
2018-12-30T14:37:03.526Z,14.03
2018-12-30T14:39:34.404Z,25.23
2018-12-30T14:42:11.398Z,11.63
2018-12-30T14:44:42.117Z,13.60
2018-12-30T14:47:12.883Z,30.52
2018-12-30T14:49:43.604Z,23.45
2018-12-30T14:52:14.451Z,19.23
2018-12-30T14:54:44.199Z,17.62
2018-12-30T14:57:14.914Z,18.95
2018-12-30T14:59:46.214Z,25.85
2018-12-30T15:02:16.968Z,24.47
2018-12-30T15:04:47.757Z,20.12
2018-12-30T15:07:18.514Z,24.65
2018-12-30T15:09:49.766Z,18.55
2018-12-30T15:12:21.119Z,31.68
2018-12-30T15:14:53.443Z,17.37
2018-12-30T15:17:24.238Z,16.52
2018-12-30T15:19:55.033Z,28.10
2018-12-30T15:22:25.874Z,27.62
2018-12-30T15:24:59.514Z,22.32
2018-12-30T15:27:30.281Z,20.17
2018-12-30T15:30:01.860Z,19.27
2018-12-30T15:32:34.091Z,17.77
2018-12-30T15:35:04.895Z,12.07
2018-12-30T15:37:37.606Z,23.32
2018-12-30T15:40:10.411Z,13.35
2018-12-30T15:42:45.578Z,13.20
2018-12-30T15:45:13.798Z,27.42
2018-12-30T15:47:44.554Z,18.65
2018-12-30T15:50:17.202Z,35.30
2018-12-30T15:52:57.446Z,18.25
2018-12-30T15:55:20.474Z,18.80
2018-12-30T15:57:51.366Z,18.37
2018-12-30T16:00:22.303Z,24.85
2018-12-30T16:02:53.155Z,12.58
2018-12-30T16:05:26.146Z,14.50
2018-12-30T16:07:56.355Z,17.62
2018-12-30T16:10:28.677Z,13.85
2018-12-30T16:12:59.439Z,11.85
2018-12-30T16:15:30.274Z,14.73
2018-12-30T16:18:01.049Z,19.17
2018-12-30T16:20:31.877Z,12.53
2018-12-30T16:23:03.236Z,15.58
2018-12-30T16:25:33.994Z,11.30
2018-12-30T16:28:05.476Z,11.75
2018-12-30T16:30:36.353Z,10.05
2018-12-30T16:33:06.163Z,6.67
2018-12-30T16:35:36.874Z,12.82
2018-12-30T16:38:07.616Z,14.33
2018-12-30T16:40:38.475Z,12.30
2018-12-30T16:43:14.408Z,13.13
2018-12-30T16:45:44.753Z,13.32
2018-12-30T16:48:14.438Z,15.70
2018-12-30T16:50:45.794Z,18.17
2018-12-30T16:53:16.562Z,14.50
2018-12-30T16:55:46.356Z,16.48
2018-12-30T16:58:19.195Z,18.25
2018-12-30T17:00:49.974Z,20.57
2018-12-30T17:03:20.957Z,18.25
2018-12-30T17:05:51.160Z,17.15
2018-12-30T17:08:22.517Z,10.55
2018-12-30T17:10:53.246Z,18.07
2018-12-30T17:13:24.779Z,10.23
2018-12-30T17:15:55.645Z,18.70
2018-12-30T17:18:32.480Z,16.93
2018-12-30T17:21:03.886Z,17.42
2018-12-30T17:23:33.706Z,13.95
2018-12-30T17:26:04.636Z,16.07
2018-12-30T17:28:35.366Z,18.27
2018-12-30T17:31:06.118Z,18.12
2018-12-30T17:33:36.886Z,17.80
2018-12-30T17:36:07.802Z,17.48
2018-12-30T17:38:38.597Z,20.97
2018-12-30T17:41:09.194Z,14.60
2018-12-30T17:43:40.010Z,15.65
2018-12-30T17:46:18.196Z,19.57
2018-12-30T17:48:46.514Z,11.33
2018-12-30T17:51:17.278Z,13.25
2018-12-30T17:53:53.479Z,15.38
2018-12-30T17:56:27.046Z,16.48
2018-12-30T17:58:59.991Z,11.20
2018-12-30T18:01:29.760Z,17.70
2018-12-30T18:04:01.003Z,15.50
2018-12-30T18:06:33.842Z,10.82
2018-12-30T18:09:03.675Z,11.40
2018-12-30T18:11:35.700Z,15.18
2018-12-30T18:14:05.479Z,12.85
2018-12-30T18:16:36.328Z,9.48
2018-12-30T18:19:06.121Z,9.53
2018-12-30T18:21:38.021Z,14.00
2018-12-30T18:24:08.998Z,19.52
2018-12-30T18:26:41.200Z,16.60
2018-12-30T18:29:13.599Z,11.48
2018-12-30T18:31:44.519Z,16.30
2018-12-30T18:34:14.234Z,13.10
2018-12-30T18:36:45.039Z,14.00
2018-12-30T18:39:17.521Z,17.80
2018-12-30T18:41:46.778Z,15.68
2018-12-30T18:44:17.682Z,13.78
2018-12-30T18:46:50.060Z,14.80
2018-12-30T18:49:22.930Z,15.08
2018-12-30T18:51:54.955Z,16.23
2018-12-30T18:54:25.926Z,18.32
2018-12-30T18:56:59.189Z,16.25
2018-12-30T18:59:30.202Z,21.02
2018-12-30T19:02:07.380Z,17.37
2018-12-30T19:04:35.730Z,21.42
2018-12-30T19:07:06.800Z,24.65
2018-12-30T19:09:37.798Z,23.18
2018-12-30T19:12:08.759Z,22.42
2018-12-30T19:14:41.138Z,16.32
2018-12-30T19:17:12.870Z,13.93
2018-12-30T19:19:42.879Z,16.57
2018-12-30T19:22:13.764Z,16.82
2018-12-30T19:24:44.519Z,8.23
2018-12-30T19:27:16.079Z,10.13
2018-12-30T19:29:46.854Z,10.05
2018-12-30T19:32:24.035Z,7.78
2018-12-30T19:34:54.929Z,9.00
2018-12-30T19:37:25.805Z,6.87
2018-12-30T19:39:58.147Z,7.72
2018-12-30T19:42:31.019Z,9.40
2018-12-30T19:45:01.527Z,10.20
2018-12-30T19:47:35.179Z,6.55
2018-12-30T19:50:07.400Z,6.72
2018-12-30T19:52:38.918Z,8.43
2018-12-30T19:55:09.650Z,3.67
2018-12-30T19:57:40.601Z,6.28
2018-12-30T20:00:12.643Z,6.45
2018-12-30T20:02:43.567Z,5.50
2018-12-30T20:05:14.274Z,5.78
2018-12-30T20:07:43.961Z,5.17
2018-12-30T20:10:14.795Z,6.50
2018-12-30T20:12:47.754Z,5.83
2018-12-30T20:15:20.078Z,6.62
2018-12-30T20:17:51.045Z,5.15
2018-12-30T20:20:22.660Z,5.12
2018-12-30T20:22:53.440Z,5.75
2018-12-30T20:25:25.758Z,6.55
2018-12-30T20:27:55.557Z,3.20
2018-12-30T20:30:26.361Z,3.55
2018-12-30T20:32:56.079Z,2.50
2018-12-30T20:35:26.914Z,2.83
2018-12-30T20:37:59.212Z,2.15
2018-12-30T20:40:31.594Z,2.10
2018-12-30T20:43:02.398Z,3.08
2018-12-30T20:45:36.358Z,2.02
2018-12-30T20:48:07.885Z,1.20
2018-12-30T20:50:39.141Z,1.25
2018-12-30T20:53:12.855Z,2.30
2018-12-30T20:55:46.499Z,2.00
2018-12-30T20:58:17.480Z,2.65
2018-12-30T21:00:48.799Z,1.92
2018-12-30T21:03:22.332Z,1.25
2018-12-30T21:05:53.163Z,1.82
2018-12-30T21:08:24.071Z,2.37
2018-12-30T21:10:54.880Z,1.77
2018-12-30T21:13:26.922Z,1.85
2018-12-30T21:15:57.677Z,2.10
2018-12-30T21:18:28.515Z,1.45
2018-12-30T21:20:59.357Z,2.10
2018-12-30T21:23:30.082Z,1.65
2018-12-30T21:26:00.868Z,1.25
2018-12-30T21:28:32.238Z,1.32
2018-12-30T21:31:04.565Z,1.67
2018-12-30T21:33:35.360Z,1.35
2018-12-30T21:36:06.263Z,2.95
2018-12-30T21:38:36.036Z,1.52
2018-12-30T21:41:06.914Z,2.22
2018-12-30T21:43:38.248Z,2.27
2018-12-30T21:46:11.137Z,2.30
2018-12-30T21:48:44.206Z,1.10
2018-12-30T21:51:15.046Z,2.02
2018-12-30T21:53:46.563Z,2.17
2018-12-30T21:56:18.037Z,3.00
2018-12-30T21:58:52.914Z,1.00
2018-12-30T22:01:21.449Z,1.57
2018-12-30T22:03:52.194Z,2.60
2018-12-30T22:06:22.759Z,2.05
2018-12-30T22:08:52.515Z,2.25
2018-12-30T22:11:22.236Z,3.17
2018-12-30T22:13:51.955Z,3.65
2018-12-30T22:16:21.236Z,3.75
2018-12-30T22:18:53.679Z,3.50
2018-12-30T22:21:25.083Z,3.55
2018-12-30T22:23:55.921Z,2.20
2018-12-30T22:26:29.545Z,2.55
2018-12-30T22:29:03.947Z,2.15
2018-12-30T22:31:35.636Z,2.87
2018-12-30T22:34:07.419Z,3.12
2018-12-30T22:36:38.283Z,3.52
2018-12-30T22:39:09.242Z,2.05
2018-12-30T22:41:40.514Z,2.83
2018-12-30T22:44:13.346Z,2.22
2018-12-30T22:46:44.117Z,3.50
2018-12-30T22:49:14.890Z,2.80
2018-12-30T22:51:44.638Z,1.92
2018-12-30T22:54:15.396Z,5.22
2018-12-30T22:56:47.727Z,3.27
2018-12-30T22:59:19.239Z,3.75
2018-12-30T23:01:50.042Z,4.50
2018-12-30T23:04:23.082Z,3.60
2018-12-30T23:06:54.370Z,4.45
2018-12-30T23:09:25.119Z,3.92
2018-12-30T23:11:55.879Z,3.47
2018-12-30T23:14:25.515Z,3.05
2018-12-30T23:17:01.279Z,3.70
2018-12-30T23:19:30.753Z,3.33
2018-12-30T23:22:08.095Z,1.57
2018-12-30T23:24:36.914Z,5.30
2018-12-30T23:27:07.819Z,5.25
2018-12-30T23:29:38.674Z,3.30
2018-12-30T23:32:15.426Z,3.00
2018-12-30T23:34:47.775Z,4.05
2018-12-30T23:37:18.553Z,4.03
2018-12-30T23:39:49.322Z,3.12
2018-12-30T23:42:20.107Z,5.08
2018-12-30T23:44:50.916Z,4.87
2018-12-30T23:47:23.238Z,2.65
2018-12-30T23:49:52.958Z,3.10
2018-12-30T23:52:24.365Z,3.72
2018-12-30T23:54:54.117Z,2.58
2018-12-30T23:57:26.471Z,3.45
2018-12-30T23:59:56.239Z,4.60
